Iron Lady — WTK5059 — position and weather

sailwx.info

Track history (hours):
 
Tides and Currents Weather Stations Pressure Air Temp Water Temp Dewpoint Dewpoint Depression Visibility Wind Speed Wind Dir Waves Ship Positions

Iron Lady

More information available from US FCC via Universal Licensing System and Coast Guard Vessel Documentation Center.

Last reported at 2014-Jun-12 01:29 UTC. Time now 2014-Jul-31 07:28 UTC.
Position N 46°32' W 124°08'.
Warning: this ship's position is 49 days out of date.

Type: Fishing. MMSI: 367037240.

Date/timePositionNaut miles runAvg speedWind from/ knotsBaromVisibWave heightAir tempDewpointWater temp
2014-Jun-12 01:29N 46°32' W 124°08'8 8.9
2014-Jun-12 00:34N 46°24' W 124°07'8 8.3
2014-Jun-11 23:33N 46°15' W 124°06'9 9.4
2014-Jun-11 22:33N 46°10' W 123°55'0 0.0
2014-Jun-11 21:33N 46°10' W 123°55'0 0.0
2014-Jun-11 20:33N 46°10' W 123°55'0 0.0
2014-Jun-11 19:33N 46°10' W 123°55'1 1.1
2014-Jun-11 18:33N 46°11' W 123°54'2 1.8
2014-Jun-11 17:33N 46°11' W 123°51'0 0.0
2014-Jun-11 16:33N 46°11' W 123°51'0 0.0
2014-Jun-11 15:33N 46°11' W 123°51'0 0.0
2014-Jun-11 14:33N 46°11' W 123°51'0 0.0
2014-Jun-11 13:33N 46°11' W 123°51'0 0.0
2014-Jun-11 12:33N 46°11' W 123°51'2 1.8
2014-Jun-11 11:33N 46°11' W 123°54'1 1.2
2014-Jun-11 10:33N 46°10' W 123°55'0 0.0
2014-Jun-11 09:33N 46°10' W 123°55'0 0.0
2014-Jun-11 08:34N 46°10' W 123°55'0 0.0
2014-Jun-11 07:33N 46°10' W 123°55'0 0.0
2014-Jun-11 06:33N 46°10' W 123°55'0 0.0
2014-Jun-11 05:33N 46°10' W 123°55'0 0.0
2014-Jun-11 04:33N 46°10' W 123°55'0 0.0
2014-Jun-11 03:33N 46°10' W 123°55'0 0.0
2014-Jun-11 02:33N 46°10' W 123°55'0 0.0
2014-Jun-11 01:33N 46°10' W 123°55'0 0.0
2014-Jun-11 00:33N 46°10' W 123°55'0 0.0
2014-Jun-10 23:33N 46°10' W 123°55'0 0.0
2014-Jun-10 22:33N 46°10' W 123°55'0 0.0
2014-Jun-10 21:33N 46°10' W 123°55'0 0.0
2014-Jun-10 20:33N 46°10' W 123°55'0 0.0
2014-Jun-10 19:33N 46°10' W 123°55'0 0.0
2014-Jun-10 18:33N 46°10' W 123°55'0 0.0
2014-Jun-10 17:34N 46°10' W 123°55'0 0.1
2014-Jun-10 16:33N 46°10' W 123°55'0 0.1
2014-Jun-10 15:33N 46°10' W 123°55'0 0.0
2014-Jun-10 14:33N 46°10' W 123°55'0 0.0
2014-Jun-10 13:33N 46°10' W 123°55'0 0.0
2014-Jun-10 12:33N 46°10' W 123°55'0 0.0
2014-Jun-10 11:33N 46°10' W 123°55'0 0.0
2014-Jun-10 10:33N 46°10' W 123°55'0 0.0
2014-Jun-10 09:33N 46°10' W 123°55'0 0.0
2014-Jun-10 08:33N 46°10' W 123°55'0 0.0
2014-Jun-10 07:34N 46°10' W 123°55'0 0.0
2014-Jun-10 06:33N 46°10' W 123°55'4 1.2
2014-Jun-10 03:33N 46°13' W 123°58'9 8.7
2014-Jun-10 02:33N 46°17' W 124°09'9 8.4
2014-Jun-10 01:32N 46°24' W 124°16'  
2014-Jun-07 11:12N 46°15' W 124°06'6 9.5
2014-Jun-07 10:33N 46°13' W 123°58'4 3.7
2014-Jun-07 09:33N 46°10' W 123°55'0 0.0
2014-Jun-07 08:33N 46°10' W 123°55'0 0.0
2014-Jun-07 07:33N 46°10' W 123°55'0 0.0
2014-Jun-07 06:33N 46°10' W 123°55'0 0.0
2014-Jun-07 05:33N 46°10' W 123°55'0 0.0
2014-Jun-07 04:33N 46°10' W 123°55'0 0.0
2014-Jun-07 03:33N 46°10' W 123°55'0 0.0
2014-Jun-07 02:33N 46°10' W 123°55'0 0.0
2014-Jun-07 01:33N 46°10' W 123°55'0 0.0
2014-Jun-07 00:33N 46°10' W 123°55'0 0.0
2014-Jun-06 23:33N 46°10' W 123°55'0 0.0
2014-Jun-06 22:33N 46°10' W 123°55'0 0.0
2014-Jun-06 21:33N 46°10' W 123°55'0 0.0
2014-Jun-06 20:33N 46°10' W 123°55'0 0.0
2014-Jun-06 19:33N 46°10' W 123°55'0 0.0
2014-Jun-06 18:33N 46°10' W 123°55'0 0.0
2014-Jun-06 17:33N 46°10' W 123°55'0 0.0
2014-Jun-06 16:33N 46°10' W 123°55'3 2.6
2014-Jun-06 15:33N 46°11' W 123°51'3 2.6
2014-Jun-06 14:33N 46°10' W 123°55'0 0.0
2014-Jun-06 13:33N 46°10' W 123°55'0 0.0
2014-Jun-06 12:33N 46°10' W 123°55'0 0.0
2014-Jun-06 11:33N 46°10' W 123°55'0 0.0
2014-Jun-06 10:33N 46°10' W 123°55'0 0.0
2014-Jun-06 09:33N 46°10' W 123°55'0 0.0
2014-Jun-06 08:33N 46°10' W 123°55'0 0.0
2014-Jun-06 07:33N 46°10' W 123°55'0 0.0
2014-Jun-06 06:33N 46°10' W 123°55'0 0.0
2014-Jun-06 05:33N 46°10' W 123°55'0 0.0
2014-Jun-06 04:33N 46°10' W 123°55'0 0.0
2014-Jun-06 03:33N 46°10' W 123°55'0 0.0
2014-Jun-06 02:33N 46°10' W 123°55'0 0.0
2014-Jun-06 01:33N 46°10' W 123°55'0 0.0
2014-Jun-06 00:33N 46°10' W 123°55'0 0.0
2014-Jun-05 23:33N 46°10' W 123°55'0 0.0
2014-Jun-05 22:33N 46°10' W 123°55'0 0.0
2014-Jun-05 21:33N 46°10' W 123°55'0 0.0
2014-Jun-05 20:33N 46°10' W 123°55'0 0.0
2014-Jun-05 19:33N 46°10' W 123°55'0 0.0
2014-Jun-05 18:33N 46°10' W 123°55'0 0.0
2014-Jun-05 17:33N 46°10' W 123°55'0 0.0
2014-Jun-05 16:33N 46°10' W 123°55'0 0.0
2014-Jun-05 15:33N 46°10' W 123°55'0 0.0
2014-Jun-05 14:33N 46°10' W 123°55'0 0.0
2014-Jun-05 13:33N 46°10' W 123°55'0 0.0
2014-Jun-05 12:33N 46°10' W 123°55'0 0.0
2014-Jun-05 11:33N 46°10' W 123°55'0 0.0
2014-Jun-05 10:33N 46°10' W 123°55'0 0.0
2014-Jun-05 09:33N 46°10' W 123°55'0 0.0
2014-Jun-05 08:33N 46°10' W 123°55'0 0.0
2014-Jun-05 07:33N 46°10' W 123°55'0 0.0
2014-Jun-05 06:33N 46°10' W 123°55'0 0.0
2014-Jun-05 05:33N 46°10' W 123°55'0 0.0
2014-Jun-05 04:33N 46°10' W 123°55'0 0.0
2014-Jun-05 03:33N 46°10' W 123°55'0 0.0
2014-Jun-05 02:33N 46°10' W 123°55'0 0.0
2014-Jun-05 01:33N 46°10' W 123°55'0 0.0
2014-Jun-05 00:33N 46°10' W 123°55'0 0.0
2014-Jun-04 23:33N 46°10' W 123°55'0 0.0
2014-Jun-04 22:33N 46°10' W 123°55'0 0.0
2014-Jun-04 21:33N 46°10' W 123°55'0 0.0
2014-Jun-04 20:33N 46°10' W 123°55'3 2.6
2014-Jun-04 19:33N 46°12' W 123°52'1 1.0
2014-Jun-04 18:33N 46°12' W 123°50'1 0.9
2014-Jun-04 17:33N 46°11' W 123°51'0 0.0
2014-Jun-04 16:33N 46°11' W 123°51'0 0.0
2014-Jun-04 15:33N 46°11' W 123°51'0 0.0
2014-Jun-04 14:33N 46°11' W 123°51'0 0.0
2014-Jun-04 13:33N 46°11' W 123°51'2 2.2
2014-Jun-04 12:33N 46°11' W 123°55'1 0.6
2014-Jun-04 11:33N 46°10' W 123°55'0 0.0
2014-Jun-04 10:33N 46°10' W 123°55'0 0.0
2014-Jun-04 09:33N 46°10' W 123°55'0 0.0
2014-Jun-04 08:33N 46°10' W 123°55'0 0.0
2014-Jun-04 07:33N 46°10' W 123°55'0 0.0
2014-Jun-04 06:33N 46°10' W 123°55'0 0.0
2014-Jun-04 05:33N 46°10' W 123°55'0 0.0
2014-Jun-04 04:33N 46°10' W 123°55'0 0.0
2014-Jun-04 03:33N 46°10' W 123°55'0 0.0
2014-Jun-04 02:33N 46°10' W 123°55'0 0.0
2014-Jun-04 01:33N 46°10' W 123°55'0 0.0
2014-Jun-04 00:33N 46°10' W 123°55'0 0.0
2014-Jun-03 23:33N 46°10' W 123°55'0 0.0
2014-Jun-03 22:33N 46°10' W 123°55'0 0.0
2014-Jun-03 21:33N 46°10' W 123°55'0 0.0
2014-Jun-03 20:33N 46°10' W 123°55'0 0.0
2014-Jun-03 19:33N 46°10' W 123°55'0 0.0
2014-Jun-03 18:33N 46°10' W 123°55'0 0.0
2014-Jun-03 17:33N 46°10' W 123°55'0 0.0
2014-Jun-03 16:33N 46°10' W 123°55'0 0.0
2014-Jun-03 15:33N 46°10' W 123°55'0 0.0
2014-Jun-03 14:33N 46°10' W 123°55'0 0.0
2014-Jun-03 13:33N 46°10' W 123°55'0 0.0
2014-Jun-03 12:33N 46°10' W 123°55'0 0.0
2014-Jun-03 11:33N 46°10' W 123°55'0 0.0
2014-Jun-03 10:33N 46°10' W 123°55'0 0.0
2014-Jun-03 09:33N 46°10' W 123°55'0 0.0
2014-Jun-03 08:33N 46°10' W 123°55'0 0.0
2014-Jun-03 07:33N 46°10' W 123°55'0 0.0
2014-Jun-03 06:33N 46°10' W 123°55'5 4.7
2014-Jun-03 05:33N 46°14' W 123°59'5 4.6
2014-Jun-03 04:32N 46°15' W 124°05'5 5.1
2014-Jun-03 03:32N 46°18' W 124°12'8 8.0
2014-Jun-03 02:29N 46°26' W 124°16'  
Track history (hours):
 
Tides and Currents Weather Stations Pressure Air Temp Water Temp Dewpoint Dewpoint Depression Visibility Wind Speed Wind Dir Waves Ship Positions

Iron Lady

More information available from US FCC via Universal Licensing System and Coast Guard Vessel Documentation Center.

Last reported at 2014-Jun-12 01:29 UTC. Time now 2014-Jul-31 07:28 UTC.
Position N 46°32' W 124°08'.
Warning: this ship's position is 49 days out of date.

Type: Fishing. MMSI: 367037240.

Date/timePositionNaut miles runAvg speedWind from/ knotsBaromVisibWave heightAir tempDewpointWater temp
2014-Jun-12 01:29N 46°32' W 124°08'8 8.9
2014-Jun-12 00:34N 46°24' W 124°07'8 8.3
2014-Jun-11 23:33N 46°15' W 124°06'9 9.4
2014-Jun-11 22:33N 46°10' W 123°55'0 0.0
2014-Jun-11 21:33N 46°10' W 123°55'0 0.0
2014-Jun-11 20:33N 46°10' W 123°55'0 0.0
2014-Jun-11 19:33N 46°10' W 123°55'1 1.1
2014-Jun-11 18:33N 46°11' W 123°54'2 1.8
2014-Jun-11 17:33N 46°11' W 123°51'0 0.0
2014-Jun-11 16:33N 46°11' W 123°51'0 0.0
2014-Jun-11 15:33N 46°11' W 123°51'0 0.0
2014-Jun-11 14:33N 46°11' W 123°51'0 0.0
2014-Jun-11 13:33N 46°11' W 123°51'0 0.0
2014-Jun-11 12:33N 46°11' W 123°51'2 1.8
2014-Jun-11 11:33N 46°11' W 123°54'1 1.2
2014-Jun-11 10:33N 46°10' W 123°55'0 0.0
2014-Jun-11 09:33N 46°10' W 123°55'0 0.0
2014-Jun-11 08:34N 46°10' W 123°55'0 0.0
2014-Jun-11 07:33N 46°10' W 123°55'0 0.0
2014-Jun-11 06:33N 46°10' W 123°55'0 0.0
2014-Jun-11 05:33N 46°10' W 123°55'0 0.0
2014-Jun-11 04:33N 46°10' W 123°55'0 0.0
2014-Jun-11 03:33N 46°10' W 123°55'0 0.0
2014-Jun-11 02:33N 46°10' W 123°55'0 0.0
2014-Jun-11 01:33N 46°10' W 123°55'0 0.0
2014-Jun-11 00:33N 46°10' W 123°55'0 0.0
2014-Jun-10 23:33N 46°10' W 123°55'0 0.0
2014-Jun-10 22:33N 46°10' W 123°55'0 0.0
2014-Jun-10 21:33N 46°10' W 123°55'0 0.0
2014-Jun-10 20:33N 46°10' W 123°55'0 0.0
2014-Jun-10 19:33N 46°10' W 123°55'0 0.0
2014-Jun-10 18:33N 46°10' W 123°55'0 0.0
2014-Jun-10 17:34N 46°10' W 123°55'0 0.1
2014-Jun-10 16:33N 46°10' W 123°55'0 0.1
2014-Jun-10 15:33N 46°10' W 123°55'0 0.0
2014-Jun-10 14:33N 46°10' W 123°55'0 0.0
2014-Jun-10 13:33N 46°10' W 123°55'0 0.0
2014-Jun-10 12:33N 46°10' W 123°55'0 0.0
2014-Jun-10 11:33N 46°10' W 123°55'0 0.0
2014-Jun-10 10:33N 46°10' W 123°55'0 0.0
2014-Jun-10 09:33N 46°10' W 123°55'0 0.0
2014-Jun-10 08:33N 46°10' W 123°55'0 0.0
2014-Jun-10 07:34N 46°10' W 123°55'0 0.0
2014-Jun-10 06:33N 46°10' W 123°55'4 1.2
2014-Jun-10 03:33N 46°13' W 123°58'9 8.7
2014-Jun-10 02:33N 46°17' W 124°09'9 8.4
2014-Jun-10 01:32N 46°24' W 124°16'  
2014-Jun-07 11:12N 46°15' W 124°06'6 9.5
2014-Jun-07 10:33N 46°13' W 123°58'4 3.7
2014-Jun-07 09:33N 46°10' W 123°55'0 0.0
2014-Jun-07 08:33N 46°10' W 123°55'0 0.0
2014-Jun-07 07:33N 46°10' W 123°55'0 0.0
2014-Jun-07 06:33N 46°10' W 123°55'0 0.0
2014-Jun-07 05:33N 46°10' W 123°55'0 0.0
2014-Jun-07 04:33N 46°10' W 123°55'0 0.0
2014-Jun-07 03:33N 46°10' W 123°55'0 0.0
2014-Jun-07 02:33N 46°10' W 123°55'0 0.0
2014-Jun-07 01:33N 46°10' W 123°55'0 0.0
2014-Jun-07 00:33N 46°10' W 123°55'0 0.0
2014-Jun-06 23:33N 46°10' W 123°55'0 0.0
2014-Jun-06 22:33N 46°10' W 123°55'0 0.0
2014-Jun-06 21:33N 46°10' W 123°55'0 0.0
2014-Jun-06 20:33N 46°10' W 123°55'0 0.0
2014-Jun-06 19:33N 46°10' W 123°55'0 0.0
2014-Jun-06 18:33N 46°10' W 123°55'0 0.0
2014-Jun-06 17:33N 46°10' W 123°55'0 0.0
2014-Jun-06 16:33N 46°10' W 123°55'3 2.6
2014-Jun-06 15:33N 46°11' W 123°51'3 2.6
2014-Jun-06 14:33N 46°10' W 123°55'0 0.0
2014-Jun-06 13:33N 46°10' W 123°55'0 0.0
2014-Jun-06 12:33N 46°10' W 123°55'0 0.0
2014-Jun-06 11:33N 46°10' W 123°55'0 0.0
2014-Jun-06 10:33N 46°10' W 123°55'0 0.0
2014-Jun-06 09:33N 46°10' W 123°55'0 0.0
2014-Jun-06 08:33N 46°10' W 123°55'0 0.0
2014-Jun-06 07:33N 46°10' W 123°55'0 0.0
2014-Jun-06 06:33N 46°10' W 123°55'0 0.0
2014-Jun-06 05:33N 46°10' W 123°55'0 0.0
2014-Jun-06 04:33N 46°10' W 123°55'0 0.0
2014-Jun-06 03:33N 46°10' W 123°55'0 0.0
2014-Jun-06 02:33N 46°10' W 123°55'0 0.0
2014-Jun-06 01:33N 46°10' W 123°55'0 0.0
2014-Jun-06 00:33N 46°10' W 123°55'0 0.0
2014-Jun-05 23:33N 46°10' W 123°55'0 0.0
2014-Jun-05 22:33N 46°10' W 123°55'0 0.0
2014-Jun-05 21:33N 46°10' W 123°55'0 0.0
2014-Jun-05 20:33N 46°10' W 123°55'0 0.0
2014-Jun-05 19:33N 46°10' W 123°55'0 0.0
2014-Jun-05 18:33N 46°10' W 123°55'0 0.0
2014-Jun-05 17:33N 46°10' W 123°55'0 0.0
2014-Jun-05 16:33N 46°10' W 123°55'0 0.0
2014-Jun-05 15:33N 46°10' W 123°55'0 0.0
2014-Jun-05 14:33N 46°10' W 123°55'0 0.0
2014-Jun-05 13:33N 46°10' W 123°55'0 0.0
2014-Jun-05 12:33N 46°10' W 123°55'0 0.0
2014-Jun-05 11:33N 46°10' W 123°55'0 0.0
2014-Jun-05 10:33N 46°10' W 123°55'0 0.0
2014-Jun-05 09:33N 46°10' W 123°55'0 0.0
2014-Jun-05 08:33N 46°10' W 123°55'0 0.0
2014-Jun-05 07:33N 46°10' W 123°55'0 0.0
2014-Jun-05 06:33N 46°10' W 123°55'0 0.0
2014-Jun-05 05:33N 46°10' W 123°55'0 0.0
2014-Jun-05 04:33N 46°10' W 123°55'0 0.0
2014-Jun-05 03:33N 46°10' W 123°55'0 0.0
2014-Jun-05 02:33N 46°10' W 123°55'0 0.0
2014-Jun-05 01:33N 46°10' W 123°55'0 0.0
2014-Jun-05 00:33N 46°10' W 123°55'0 0.0
2014-Jun-04 23:33N 46°10' W 123°55'0 0.0
2014-Jun-04 22:33N 46°10' W 123°55'0 0.0
2014-Jun-04 21:33N 46°10' W 123°55'0 0.0
2014-Jun-04 20:33N 46°10' W 123°55'3 2.6
2014-Jun-04 19:33N 46°12' W 123°52'1 1.0
2014-Jun-04 18:33N 46°12' W 123°50'1 0.9
2014-Jun-04 17:33N 46°11' W 123°51'0 0.0
2014-Jun-04 16:33N 46°11' W 123°51'0 0.0
2014-Jun-04 15:33N 46°11' W 123°51'0 0.0
2014-Jun-04 14:33N 46°11' W 123°51'0 0.0
2014-Jun-04 13:33N 46°11' W 123°51'2 2.2
2014-Jun-04 12:33N 46°11' W 123°55'1 0.6
2014-Jun-04 11:33N 46°10' W 123°55'0 0.0
2014-Jun-04 10:33N 46°10' W 123°55'0 0.0
2014-Jun-04 09:33N 46°10' W 123°55'0 0.0
2014-Jun-04 08:33N 46°10' W 123°55'0 0.0
2014-Jun-04 07:33N 46°10' W 123°55'0 0.0
2014-Jun-04 06:33N 46°10' W 123°55'0 0.0
2014-Jun-04 05:33N 46°10' W 123°55'0 0.0
2014-Jun-04 04:33N 46°10' W 123°55'0 0.0
2014-Jun-04 03:33N 46°10' W 123°55'0 0.0
2014-Jun-04 02:33N 46°10' W 123°55'0 0.0
2014-Jun-04 01:33N 46°10' W 123°55'0 0.0
2014-Jun-04 00:33N 46°10' W 123°55'0 0.0
2014-Jun-03 23:33N 46°10' W 123°55'0 0.0
2014-Jun-03 22:33N 46°10' W 123°55'0 0.0
2014-Jun-03 21:33N 46°10' W 123°55'0 0.0
2014-Jun-03 20:33N 46°10' W 123°55'0 0.0
2014-Jun-03 19:33N 46°10' W 123°55'0 0.0
2014-Jun-03 18:33N 46°10' W 123°55'0 0.0
2014-Jun-03 17:33N 46°10' W 123°55'0 0.0
2014-Jun-03 16:33N 46°10' W 123°55'0 0.0
2014-Jun-03 15:33N 46°10' W 123°55'0 0.0
2014-Jun-03 14:33N 46°10' W 123°55'0 0.0
2014-Jun-03 13:33N 46°10' W 123°55'0 0.0
2014-Jun-03 12:33N 46°10' W 123°55'0 0.0
2014-Jun-03 11:33N 46°10' W 123°55'0 0.0
2014-Jun-03 10:33N 46°10' W 123°55'0 0.0
2014-Jun-03 09:33N 46°10' W 123°55'0 0.0
2014-Jun-03 08:33N 46°10' W 123°55'0 0.0
2014-Jun-03 07:33N 46°10' W 123°55'0 0.0
2014-Jun-03 06:33N 46°10' W 123°55'5 4.7
2014-Jun-03 05:33N 46°14' W 123°59'5 4.6
2014-Jun-03 04:32N 46°15' W 124°05'5 5.1
2014-Jun-03 03:32N 46°18' W 124°12'8 8.0
2014-Jun-03 02:29N 46°26' W 124°16'  

Dump ship's entire track history